sensor_id;sensor_type;location;lat;lon;timestamp;temperature;humidity
17565;DHT22;62994;52.126;5.596;2023-01-16T00:00:25;6.70;99.90
17565;DHT22;62994;52.126;5.596;2023-01-16T00:02:52;6.70;99.90
17565;DHT22;62994;52.126;5.596;2023-01-16T00:05:19;6.60;99.90
17565;DHT22;62994;52.126;5.596;2023-01-16T00:07:46;6.60;99.90
17565;DHT22;62994;52.126;5.596;2023-01-16T00:10:13;6.60;99.90
17565;DHT22;62994;52.126;5.596;2023-01-16T00:12:42;6.70;99.90
17565;DHT22;62994;52.126;5.596;2023-01-16T00:15:10;6.70;99.90
17565;DHT22;62994;52.126;5.596;2023-01-16T00:17:37;6.70;99.90
17565;DHT22;62994;52.126;5.596;2023-01-16T00:20:05;6.60;99.90
17565;DHT22;62994;52.126;5.596;2023-01-16T00:22:32;6.60;99.90
17565;DHT22;62994;52.126;5.596;2023-01-16T00:24:59;6.60;99.90
17565;DHT22;62994;52.126;5.596;2023-01-16T00:27:26;6.70;99.90
17565;DHT22;62994;52.126;5.596;2023-01-16T00:29:53;6.70;99.90
17565;DHT22;62994;52.126;5.596;2023-01-16T00:32:21;6.70;99.90
17565;DHT22;62994;52.126;5.596;2023-01-16T00:34:48;6.70;99.90
17565;DHT22;62994;52.126;5.596;2023-01-16T00:37:15;6.70;99.90
17565;DHT22;62994;52.126;5.596;2023-01-16T00:39:42;6.60;99.90
17565;DHT22;62994;52.126;5.596;2023-01-16T00:42:09;6.70;99.90
17565;DHT22;62994;52.126;5.596;2023-01-16T00:44:36;6.70;99.90
17565;DHT22;62994;52.126;5.596;2023-01-16T00:47:07;6.70;99.90
17565;DHT22;62994;52.126;5.596;2023-01-16T00:49:36;6.70;99.90
17565;DHT22;62994;52.126;5.596;2023-01-16T00:52:03;6.60;99.90
17565;DHT22;62994;52.126;5.596;2023-01-16T00:54:30;6.60;99.90
17565;DHT22;62994;52.126;5.596;2023-01-16T00:56:57;6.60;99.90
17565;DHT22;62994;52.126;5.596;2023-01-16T00:59:24;6.60;99.90
17565;DHT22;62994;52.126;5.596;2023-01-16T01:01:51;6.50;99.90
17565;DHT22;62994;52.126;5.596;2023-01-16T01:04:18;6.50;99.90
17565;DHT22;62994;52.126;5.596;2023-01-16T01:06:46;6.50;99.90
17565;DHT22;62994;52.126;5.596;2023-01-16T01:09:13;6.50;99.90
17565;DHT22;62994;52.126;5.596;2023-01-16T01:11:40;6.60;99.90
17565;DHT22;62994;52.126;5.596;2023-01-16T01:14:07;6.60;99.90
17565;DHT22;62994;52.126;5.596;2023-01-16T01:16:34;6.50;99.90
17565;DHT22;62994;52.126;5.596;2023-01-16T01:19:01;6.50;99.90
17565;DHT22;62994;52.126;5.596;2023-01-16T01:21:28;6.50;99.90
17565;DHT22;62994;52.126;5.596;2023-01-16T01:23:56;6.60;99.90
17565;DHT22;62994;52.126;5.596;2023-01-16T01:26:23;6.60;99.90
17565;DHT22;62994;52.126;5.596;2023-01-16T01:28:50;6.70;99.90
17565;DHT22;62994;52.126;5.596;2023-01-16T01:31:17;6.70;99.90
17565;DHT22;62994;52.126;5.596;2023-01-16T01:33:44;6.70;99.90
17565;DHT22;62994;52.126;5.596;2023-01-16T01:36:11;6.60;99.90
17565;DHT22;62994;52.126;5.596;2023-01-16T01:38:38;6.50;99.90
17565;DHT22;62994;52.126;5.596;2023-01-16T01:41:08;6.50;99.90
17565;DHT22;62994;52.126;5.596;2023-01-16T01:43:47;6.60;99.90
17565;DHT22;62994;52.126;5.596;2023-01-16T01:46:21;6.50;99.90
17565;DHT22;62994;52.126;5.596;2023-01-16T01:48:51;6.50;99.90
17565;DHT22;62994;52.126;5.596;2023-01-16T01:51:22;6.50;99.90
17565;DHT22;62994;52.126;5.596;2023-01-16T01:53:55;6.50;99.90
17565;DHT22;62994;52.126;5.596;2023-01-16T01:56:27;6.50;99.90
17565;DHT22;62994;52.126;5.596;2023-01-16T01:59:00;6.50;99.90
17565;DHT22;62994;52.126;5.596;2023-01-16T02:01:28;6.50;99.90
17565;DHT22;62994;52.126;5.596;2023-01-16T02:03:58;6.50;99.90
17565;DHT22;62994;52.126;5.596;2023-01-16T02:06:30;6.50;99.90
17565;DHT22;62994;52.126;5.596;2023-01-16T02:08:59;6.50;99.90
17565;DHT22;62994;52.126;5.596;2023-01-16T02:11:32;6.40;99.90
17565;DHT22;62994;52.126;5.596;2023-01-16T02:14:04;6.40;99.90
17565;DHT22;62994;52.126;5.596;2023-01-16T02:16:32;6.40;99.90
17565;DHT22;62994;52.126;5.596;2023-01-16T02:19:21;6.40;99.90
17565;DHT22;62994;52.126;5.596;2023-01-16T02:22:19;6.40;99.90
17565;DHT22;62994;52.126;5.596;2023-01-16T02:25:33;6.40;99.90
17565;DHT22;62994;52.126;5.596;2023-01-16T02:28:28;6.40;99.90
17565;DHT22;62994;52.126;5.596;2023-01-16T02:31:12;6.40;99.90
17565;DHT22;62994;52.126;5.596;2023-01-16T02:33:52;6.40;99.90
17565;DHT22;62994;52.126;5.596;2023-01-16T02:36:32;6.40;99.90
17565;DHT22;62994;52.126;5.596;2023-01-16T02:39:06;6.40;99.90
17565;DHT22;62994;52.126;5.596;2023-01-16T02:41:38;6.50;99.90
17565;DHT22;62994;52.126;5.596;2023-01-16T02:44:17;6.50;99.90
17565;DHT22;62994;52.126;5.596;2023-01-16T02:46:56;6.50;99.90
17565;DHT22;62994;52.126;5.596;2023-01-16T02:49:29;6.50;99.90
17565;DHT22;62994;52.126;5.596;2023-01-16T02:52:06;6.50;99.90
17565;DHT22;62994;52.126;5.596;2023-01-16T02:54:40;6.40;99.90
17565;DHT22;62994;52.126;5.596;2023-01-16T02:57:12;6.40;99.90
17565;DHT22;62994;52.126;5.596;2023-01-16T02:59:41;6.40;99.90
17565;DHT22;62994;52.126;5.596;2023-01-16T03:02:10;6.30;99.90
17565;DHT22;62994;52.126;5.596;2023-01-16T03:04:44;6.30;99.90
17565;DHT22;62994;52.126;5.596;2023-01-16T03:07:42;6.30;99.90
17565;DHT22;62994;52.126;5.596;2023-01-16T03:10:22;6.40;99.90
17565;DHT22;62994;52.126;5.596;2023-01-16T03:13:00;6.30;99.90
17565;DHT22;62994;52.126;5.596;2023-01-16T03:15:42;6.30;99.90
17565;DHT22;62994;52.126;5.596;2023-01-16T03:18:20;6.30;99.90
17565;DHT22;62994;52.126;5.596;2023-01-16T03:20:53;6.30;99.90
17565;DHT22;62994;52.126;5.596;2023-01-16T03:23:28;6.20;99.90
17565;DHT22;62994;52.126;5.596;2023-01-16T03:26:00;6.20;99.90
17565;DHT22;62994;52.126;5.596;2023-01-16T03:28:33;6.20;99.90
17565;DHT22;62994;52.126;5.596;2023-01-16T03:31:07;6.20;99.90
17565;DHT22;62994;52.126;5.596;2023-01-16T03:33:42;6.10;99.90
17565;DHT22;62994;52.126;5.596;2023-01-16T03:36:14;6.20;99.90
17565;DHT22;62994;52.126;5.596;2023-01-16T03:38:43;6.20;99.90
17565;DHT22;62994;52.126;5.596;2023-01-16T03:41:15;6.20;99.90
17565;DHT22;62994;52.126;5.596;2023-01-16T03:43:44;6.20;99.90
17565;DHT22;62994;52.126;5.596;2023-01-16T03:46:15;6.20;99.90
17565;DHT22;62994;52.126;5.596;2023-01-16T03:48:48;6.10;99.90
17565;DHT22;62994;52.126;5.596;2023-01-16T03:51:20;6.10;99.90
17565;DHT22;62994;52.126;5.596;2023-01-16T03:53:56;6.10;99.90
17565;DHT22;62994;52.126;5.596;2023-01-16T03:56:27;6.10;99.90
17565;DHT22;62994;52.126;5.596;2023-01-16T03:58:56;6.10;99.90
17565;DHT22;62994;52.126;5.596;2023-01-16T04:01:27;6.00;99.90
17565;DHT22;62994;52.126;5.596;2023-01-16T04:04:01;6.10;99.90
17565;DHT22;62994;52.126;5.596;2023-01-16T04:06:41;6.00;99.90
17565;DHT22;62994;52.126;5.596;2023-01-16T04:09:12;6.00;99.90
17565;DHT22;62994;52.126;5.596;2023-01-16T04:11:41;6.00;99.90
17565;DHT22;62994;52.126;5.596;2023-01-16T04:14:11;5.90;99.90
17565;DHT22;62994;52.126;5.596;2023-01-16T04:16:40;5.90;99.90
17565;DHT22;62994;52.126;5.596;2023-01-16T04:19:12;5.90;99.90
17565;DHT22;62994;52.126;5.596;2023-01-16T04:21:43;5.80;99.90
17565;DHT22;62994;52.126;5.596;2023-01-16T04:24:10;5.80;99.90
17565;DHT22;62994;52.126;5.596;2023-01-16T04:26:37;5.80;99.90
17565;DHT22;62994;52.126;5.596;2023-01-16T04:29:04;5.80;99.90
17565;DHT22;62994;52.126;5.596;2023-01-16T04:31:31;5.80;99.90
17565;DHT22;62994;52.126;5.596;2023-01-16T04:33:58;5.80;99.90
17565;DHT22;62994;52.126;5.596;2023-01-16T04:36:26;5.70;99.90
17565;DHT22;62994;52.126;5.596;2023-01-16T04:38:54;5.70;99.90
17565;DHT22;62994;52.126;5.596;2023-01-16T04:41:21;5.60;99.90
17565;DHT22;62994;52.126;5.596;2023-01-16T04:44:03;5.60;99.90
17565;DHT22;62994;52.126;5.596;2023-01-16T04:46:30;5.60;99.90
17565;DHT22;62994;52.126;5.596;2023-01-16T04:48:57;5.50;99.90
17565;DHT22;62994;52.126;5.596;2023-01-16T04:51:25;5.50;99.90
17565;DHT22;62994;52.126;5.596;2023-01-16T04:53:54;5.50;99.90
17565;DHT22;62994;52.126;5.596;2023-01-16T04:56:21;5.50;99.90
17565;DHT22;62994;52.126;5.596;2023-01-16T04:58:48;5.50;99.90
17565;DHT22;62994;52.126;5.596;2023-01-16T05:01:16;5.50;99.90
17565;DHT22;62994;52.126;5.596;2023-01-16T05:03:43;5.50;99.90
17565;DHT22;62994;52.126;5.596;2023-01-16T05:06:10;5.50;99.90
17565;DHT22;62994;52.126;5.596;2023-01-16T05:08:39;5.50;99.90
17565;DHT22;62994;52.126;5.596;2023-01-16T05:11:06;5.50;99.90
17565;DHT22;62994;52.126;5.596;2023-01-16T05:13:33;5.50;99.90
17565;DHT22;62994;52.126;5.596;2023-01-16T05:16:00;5.50;99.90
17565;DHT22;62994;52.126;5.596;2023-01-16T05:18:27;5.40;99.90
17565;DHT22;62994;52.126;5.596;2023-01-16T05:20:54;5.40;99.90
17565;DHT22;62994;52.126;5.596;2023-01-16T05:23:21;5.30;99.90
17565;DHT22;62994;52.126;5.596;2023-01-16T05:25:49;5.30;99.90
17565;DHT22;62994;52.126;5.596;2023-01-16T05:28:16;5.30;99.90
17565;DHT22;62994;52.126;5.596;2023-01-16T05:30:43;5.30;99.90
17565;DHT22;62994;52.126;5.596;2023-01-16T05:33:10;5.30;99.90
17565;DHT22;62994;52.126;5.596;2023-01-16T05:35:37;5.30;99.90
17565;DHT22;62994;52.126;5.596;2023-01-16T05:38:04;5.30;99.90
17565;DHT22;62994;52.126;5.596;2023-01-16T05:40:31;5.20;99.90
17565;DHT22;62994;52.126;5.596;2023-01-16T05:42:59;5.20;99.90
17565;DHT22;62994;52.126;5.596;2023-01-16T05:45:26;5.10;99.90
17565;DHT22;62994;52.126;5.596;2023-01-16T05:47:53;5.00;99.90
17565;DHT22;62994;52.126;5.596;2023-01-16T05:50:20;5.00;99.90
17565;DHT22;62994;52.126;5.596;2023-01-16T05:52:47;5.00;99.90
17565;DHT22;62994;52.126;5.596;2023-01-16T05:55:14;5.00;99.90
17565;DHT22;62994;52.126;5.596;2023-01-16T05:57:40;5.00;99.90
17565;DHT22;62994;52.126;5.596;2023-01-16T06:00:10;5.00;99.90
17565;DHT22;62994;52.126;5.596;2023-01-16T06:02:37;5.00;99.90
17565;DHT22;62994;52.126;5.596;2023-01-16T06:05:05;5.00;99.90
17565;DHT22;62994;52.126;5.596;2023-01-16T06:07:32;5.00;99.90
17565;DHT22;62994;52.126;5.596;2023-01-16T06:09:59;5.10;99.90
17565;DHT22;62994;52.126;5.596;2023-01-16T06:12:26;5.00;99.90
17565;DHT22;62994;52.126;5.596;2023-01-16T06:14:53;5.10;99.90
17565;DHT22;62994;52.126;5.596;2023-01-16T06:17:21;5.10;99.90
17565;DHT22;62994;52.126;5.596;2023-01-16T06:19:48;5.10;99.90
17565;DHT22;62994;52.126;5.596;2023-01-16T06:22:15;5.10;99.90
17565;DHT22;62994;52.126;5.596;2023-01-16T06:24:42;5.10;99.90
17565;DHT22;62994;52.126;5.596;2023-01-16T06:27:09;5.20;99.90
17565;DHT22;62994;52.126;5.596;2023-01-16T06:29:36;5.10;99.90
17565;DHT22;62994;52.126;5.596;2023-01-16T06:32:04;5.10;99.90
17565;DHT22;62994;52.126;5.596;2023-01-16T06:34:33;5.10;99.90
17565;DHT22;62994;52.126;5.596;2023-01-16T06:37:00;5.10;99.90
17565;DHT22;62994;52.126;5.596;2023-01-16T06:39:26;5.20;99.90
17565;DHT22;62994;52.126;5.596;2023-01-16T06:41:53;5.20;99.90
17565;DHT22;62994;52.126;5.596;2023-01-16T06:44:20;5.20;99.90
17565;DHT22;62994;52.126;5.596;2023-01-16T06:46:47;5.20;99.90
17565;DHT22;62994;52.126;5.596;2023-01-16T06:49:14;5.20;99.90
17565;DHT22;62994;52.126;5.596;2023-01-16T06:51:42;5.30;99.90
17565;DHT22;62994;52.126;5.596;2023-01-16T06:54:10;5.30;99.90
17565;DHT22;62994;52.126;5.596;2023-01-16T06:56:37;5.30;99.90
17565;DHT22;62994;52.126;5.596;2023-01-16T06:59:04;5.40;99.90
17565;DHT22;62994;52.126;5.596;2023-01-16T07:01:31;5.40;99.90
17565;DHT22;62994;52.126;5.596;2023-01-16T07:03:57;5.40;99.90
17565;DHT22;62994;52.126;5.596;2023-01-16T07:06:24;5.50;99.90
17565;DHT22;62994;52.126;5.596;2023-01-16T07:08:53;5.40;99.90
17565;DHT22;62994;52.126;5.596;2023-01-16T07:11:20;5.50;99.90
17565;DHT22;62994;52.126;5.596;2023-01-16T07:13:47;5.40;99.90
17565;DHT22;62994;52.126;5.596;2023-01-16T07:16:15;5.50;99.90
17565;DHT22;62994;52.126;5.596;2023-01-16T07:19:00;5.50;99.90
17565;DHT22;62994;52.126;5.596;2023-01-16T07:21:46;5.50;99.90
17565;DHT22;62994;52.126;5.596;2023-01-16T07:24:35;5.50;99.90
17565;DHT22;62994;52.126;5.596;2023-01-16T07:27:06;5.40;99.90
17565;DHT22;62994;52.126;5.596;2023-01-16T07:29:34;5.50;99.90
17565;DHT22;62994;52.126;5.596;2023-01-16T07:32:02;5.50;99.90
17565;DHT22;62994;52.126;5.596;2023-01-16T07:34:30;5.40;99.90
17565;DHT22;62994;52.126;5.596;2023-01-16T07:36:56;5.40;99.90
17565;DHT22;62994;52.126;5.596;2023-01-16T07:39:23;5.40;99.90
17565;DHT22;62994;52.126;5.596;2023-01-16T07:41:52;5.40;99.90
17565;DHT22;62994;52.126;5.596;2023-01-16T07:44:19;5.40;99.90
17565;DHT22;62994;52.126;5.596;2023-01-16T07:46:45;5.30;99.90
17565;DHT22;62994;52.126;5.596;2023-01-16T07:49:12;5.30;99.90
17565;DHT22;62994;52.126;5.596;2023-01-16T07:51:39;5.40;99.90
17565;DHT22;62994;52.126;5.596;2023-01-16T07:54:07;5.30;99.90
17565;DHT22;62994;52.126;5.596;2023-01-16T07:56:34;5.30;99.90
17565;DHT22;62994;52.126;5.596;2023-01-16T07:59:03;5.20;99.90
17565;DHT22;62994;52.126;5.596;2023-01-16T08:01:30;5.20;99.90
17565;DHT22;62994;52.126;5.596;2023-01-16T08:03:57;5.20;99.90
17565;DHT22;62994;52.126;5.596;2023-01-16T08:06:26;5.20;99.90
17565;DHT22;62994;52.126;5.596;2023-01-16T08:08:53;5.20;99.90
17565;DHT22;62994;52.126;5.596;2023-01-16T08:11:20;5.20;99.90
17565;DHT22;62994;52.126;5.596;2023-01-16T08:14:04;5.20;99.90
17565;DHT22;62994;52.126;5.596;2023-01-16T08:16:32;5.20;99.90
17565;DHT22;62994;52.126;5.596;2023-01-16T08:18:59;5.20;99.90
17565;DHT22;62994;52.126;5.596;2023-01-16T08:21:26;5.20;99.90
17565;DHT22;62994;52.126;5.596;2023-01-16T08:23:53;5.20;99.90
17565;DHT22;62994;52.126;5.596;2023-01-16T08:26:20;5.20;99.90
17565;DHT22;62994;52.126;5.596;2023-01-16T08:28:47;5.10;99.90
17565;DHT22;62994;52.126;5.596;2023-01-16T08:31:16;5.10;99.90
17565;DHT22;62994;52.126;5.596;2023-01-16T08:33:44;5.10;99.90
17565;DHT22;62994;52.126;5.596;2023-01-16T08:36:12;5.10;99.90
17565;DHT22;62994;52.126;5.596;2023-01-16T08:38:41;5.10;99.90
17565;DHT22;62994;52.126;5.596;2023-01-16T08:41:08;5.10;99.90
17565;DHT22;62994;52.126;5.596;2023-01-16T08:43:55;5.10;99.90
17565;DHT22;62994;52.126;5.596;2023-01-16T08:46:41;5.10;99.90
17565;DHT22;62994;52.126;5.596;2023-01-16T08:49:27;5.10;99.90
17565;DHT22;62994;52.126;5.596;2023-01-16T08:52:11;5.10;99.90
17565;DHT22;62994;52.126;5.596;2023-01-16T08:54:38;5.10;99.90
17565;DHT22;62994;52.126;5.596;2023-01-16T08:57:05;5.20;99.90
17565;DHT22;62994;52.126;5.596;2023-01-16T08:59:32;5.20;99.90
17565;DHT22;62994;52.126;5.596;2023-01-16T09:02:01;5.20;99.90
17565;DHT22;62994;52.126;5.596;2023-01-16T09:04:28;5.20;99.90
17565;DHT22;62994;52.126;5.596;2023-01-16T09:06:55;5.20;99.90
17565;DHT22;62994;52.126;5.596;2023-01-16T09:09:22;5.20;99.90
17565;DHT22;62994;52.126;5.596;2023-01-16T09:11:54;5.20;99.90
17565;DHT22;62994;52.126;5.596;2023-01-16T09:14:38;5.30;99.90
17565;DHT22;62994;52.126;5.596;2023-01-16T09:17:07;5.30;99.90
17565;DHT22;62994;52.126;5.596;2023-01-16T09:19:35;5.40;99.90
17565;DHT22;62994;52.126;5.596;2023-01-16T09:22:02;5.30;99.90
17565;DHT22;62994;52.126;5.596;2023-01-16T09:24:31;5.30;99.90
17565;DHT22;62994;52.126;5.596;2023-01-16T09:26:58;5.30;99.90
17565;DHT22;62994;52.126;5.596;2023-01-16T09:29:25;5.40;99.90
17565;DHT22;62994;52.126;5.596;2023-01-16T09:31:53;5.40;99.90
17565;DHT22;62994;52.126;5.596;2023-01-16T09:34:21;5.40;99.90
17565;DHT22;62994;52.126;5.596;2023-01-16T09:36:48;5.40;99.90
17565;DHT22;62994;52.126;5.596;2023-01-16T09:39:15;5.50;99.90
17565;DHT22;62994;52.126;5.596;2023-01-16T09:41:53;5.50;99.90
17565;DHT22;62994;52.126;5.596;2023-01-16T09:44:41;5.50;99.90
17565;DHT22;62994;52.126;5.596;2023-01-16T09:47:11;5.50;99.90
17565;DHT22;62994;52.126;5.596;2023-01-16T09:49:45;5.60;99.90
17565;DHT22;62994;52.126;5.596;2023-01-16T09:52:16;5.60;99.90
17565;DHT22;62994;52.126;5.596;2023-01-16T09:55:06;5.50;99.90
17565;DHT22;62994;52.126;5.596;2023-01-16T09:57:55;5.60;99.90
17565;DHT22;62994;52.126;5.596;2023-01-16T10:00:39;5.60;99.90
17565;DHT22;62994;52.126;5.596;2023-01-16T10:03:07;5.60;99.90
17565;DHT22;62994;52.126;5.596;2023-01-16T10:05:40;5.60;99.90
17565;DHT22;62994;52.126;5.596;2023-01-16T10:08:15;5.60;99.90
17565;DHT22;62994;52.126;5.596;2023-01-16T10:10:45;5.60;99.90
17565;DHT22;62994;52.126;5.596;2023-01-16T10:13:36;5.70;99.90
17565;DHT22;62994;52.126;5.596;2023-01-16T10:16:11;5.70;99.90
17565;DHT22;62994;52.126;5.596;2023-01-16T10:18:49;5.70;99.90
17565;DHT22;62994;52.126;5.596;2023-01-16T10:24:28;5.80;99.90
17565;DHT22;62994;52.126;5.596;2023-01-16T10:27:06;5.80;99.90
17565;DHT22;62994;52.126;5.596;2023-01-16T10:29:39;5.80;99.90
17565;DHT22;62994;52.126;5.596;2023-01-16T10:32:11;5.80;99.90
17565;DHT22;62994;52.126;5.596;2023-01-16T10:34:49;5.80;99.90
17565;DHT22;62994;52.126;5.596;2023-01-16T10:37:18;5.80;99.90
17565;DHT22;62994;52.126;5.596;2023-01-16T10:39:48;5.80;99.90
17565;DHT22;62994;52.126;5.596;2023-01-16T10:42:20;5.90;99.90
17565;DHT22;62994;52.126;5.596;2023-01-16T10:45:14;5.90;99.90
17565;DHT22;62994;52.126;5.596;2023-01-16T10:47:59;5.90;99.90
17565;DHT22;62994;52.126;5.596;2023-01-16T10:50:43;5.90;99.90
17565;DHT22;62994;52.126;5.596;2023-01-16T10:53:13;5.90;99.90
17565;DHT22;62994;52.126;5.596;2023-01-16T10:55:44;5.90;99.90
17565;DHT22;62994;52.126;5.596;2023-01-16T10:58:24;6.00;99.90
17565;DHT22;62994;52.126;5.596;2023-01-16T11:00:53;6.00;99.90
17565;DHT22;62994;52.126;5.596;2023-01-16T11:03:30;6.00;99.90
17565;DHT22;62994;52.126;5.596;2023-01-16T11:06:17;6.00;99.90
17565;DHT22;62994;52.126;5.596;2023-01-16T11:08:48;6.00;99.90
17565;DHT22;62994;52.126;5.596;2023-01-16T11:11:16;6.00;99.90
17565;DHT22;62994;52.126;5.596;2023-01-16T11:14:13;6.00;99.90
17565;DHT22;62994;52.126;5.596;2023-01-16T11:17:19;6.00;99.90
17565;DHT22;62994;52.126;5.596;2023-01-16T11:20:05;6.10;99.90
17565;DHT22;62994;52.126;5.596;2023-01-16T11:22:37;6.10;99.90
17565;DHT22;62994;52.126;5.596;2023-01-16T11:25:09;6.00;99.90
17565;DHT22;62994;52.126;5.596;2023-01-16T11:27:41;6.10;99.90
17565;DHT22;62994;52.126;5.596;2023-01-16T11:30:16;6.10;99.90
17565;DHT22;62994;52.126;5.596;2023-01-16T11:32:46;6.00;99.90
17565;DHT22;62994;52.126;5.596;2023-01-16T11:35:16;6.00;99.90
17565;DHT22;62994;52.126;5.596;2023-01-16T11:37:45;6.00;99.90
17565;DHT22;62994;52.126;5.596;2023-01-16T11:40:18;6.10;99.90
17565;DHT22;62994;52.126;5.596;2023-01-16T11:42:56;6.10;99.90
17565;DHT22;62994;52.126;5.596;2023-01-16T11:45:56;6.10;99.90
17565;DHT22;62994;52.126;5.596;2023-01-16T11:48:44;6.30;99.90
17565;DHT22;62994;52.126;5.596;2023-01-16T11:51:16;6.40;99.90
17565;DHT22;62994;52.126;5.596;2023-01-16T11:53:44;6.40;99.90
17565;DHT22;62994;52.126;5.596;2023-01-16T11:59:11;6.50;99.90
17565;DHT22;62994;52.126;5.596;2023-01-16T12:01:50;6.60;99.90
17565;DHT22;62994;52.126;5.596;2023-01-16T12:04:41;6.60;99.90
17565;DHT22;62994;52.126;5.596;2023-01-16T12:07:39;6.60;99.90
17565;DHT22;62994;52.126;5.596;2023-01-16T12:10:18;6.50;99.90
17565;DHT22;62994;52.126;5.596;2023-01-16T12:12:56;6.60;99.90
17565;DHT22;62994;52.126;5.596;2023-01-16T12:15:56;6.60;99.90
17565;DHT22;62994;52.126;5.596;2023-01-16T12:18:31;6.60;99.90
17565;DHT22;62994;52.126;5.596;2023-01-16T12:21:01;6.60;99.90
17565;DHT22;62994;52.126;5.596;2023-01-16T12:23:43;6.60;99.90
17565;DHT22;62994;52.126;5.596;2023-01-16T12:26:18;6.60;99.90
17565;DHT22;62994;52.126;5.596;2023-01-16T12:28:55;6.60;99.90
17565;DHT22;62994;52.126;5.596;2023-01-16T12:31:51;6.70;99.90
17565;DHT22;62994;52.126;5.596;2023-01-16T12:34:44;6.70;99.90
17565;DHT22;62994;52.126;5.596;2023-01-16T12:37:30;6.60;99.90
17565;DHT22;62994;52.126;5.596;2023-01-16T12:40:12;6.60;99.90
17565;DHT22;62994;52.126;5.596;2023-01-16T12:42:51;6.60;99.90
17565;DHT22;62994;52.126;5.596;2023-01-16T12:45:47;6.60;99.90
17565;DHT22;62994;52.126;5.596;2023-01-16T12:48:37;6.60;99.90
17565;DHT22;62994;52.126;5.596;2023-01-16T12:51:46;6.60;99.90
17565;DHT22;62994;52.126;5.596;2023-01-16T12:54:27;6.60;99.90
17565;DHT22;62994;52.126;5.596;2023-01-16T12:57:16;6.70;99.90
17565;DHT22;62994;52.126;5.596;2023-01-16T12:59:48;6.60;99.90
17565;DHT22;62994;52.126;5.596;2023-01-16T13:02:22;6.70;99.90
17565;DHT22;62994;52.126;5.596;2023-01-16T13:04:55;6.70;99.90
17565;DHT22;62994;52.126;5.596;2023-01-16T13:07:36;6.70;99.90
17565;DHT22;62994;52.126;5.596;2023-01-16T13:10:12;6.70;99.90
17565;DHT22;62994;52.126;5.596;2023-01-16T13:13:00;6.70;99.90
17565;DHT22;62994;52.126;5.596;2023-01-16T13:15:49;6.70;99.90
17565;DHT22;62994;52.126;5.596;2023-01-16T13:18:19;6.70;99.90
17565;DHT22;62994;52.126;5.596;2023-01-16T13:20:52;6.70;99.90
17565;DHT22;62994;52.126;5.596;2023-01-16T13:23:23;6.70;99.90
17565;DHT22;62994;52.126;5.596;2023-01-16T13:25:55;6.80;99.90
17565;DHT22;62994;52.126;5.596;2023-01-16T13:28:30;6.80;99.90
17565;DHT22;62994;52.126;5.596;2023-01-16T13:31:03;6.80;99.90
17565;DHT22;62994;52.126;5.596;2023-01-16T13:33:33;6.80;99.90
17565;DHT22;62994;52.126;5.596;2023-01-16T13:36:17;6.80;99.90
17565;DHT22;62994;52.126;5.596;2023-01-16T13:38:58;6.80;99.90
17565;DHT22;62994;52.126;5.596;2023-01-16T13:41:29;6.80;99.90
17565;DHT22;62994;52.126;5.596;2023-01-16T13:44:01;6.80;99.90
17565;DHT22;62994;52.126;5.596;2023-01-16T13:46:47;6.80;99.90
17565;DHT22;62994;52.126;5.596;2023-01-16T13:49:18;6.80;99.90
17565;DHT22;62994;52.126;5.596;2023-01-16T13:51:49;6.80;99.90
17565;DHT22;62994;52.126;5.596;2023-01-16T13:54:20;6.90;99.90
17565;DHT22;62994;52.126;5.596;2023-01-16T13:56:56;6.90;99.90
17565;DHT22;62994;52.126;5.596;2023-01-16T13:59:39;6.90;99.90
17565;DHT22;62994;52.126;5.596;2023-01-16T14:02:38;6.80;99.90
17565;DHT22;62994;52.126;5.596;2023-01-16T14:05:23;6.80;99.90
17565;DHT22;62994;52.126;5.596;2023-01-16T14:08:14;6.80;99.90
17565;DHT22;62994;52.126;5.596;2023-01-16T14:11:33;6.80;99.90
17565;DHT22;62994;52.126;5.596;2023-01-16T14:14:29;6.80;99.90
17565;DHT22;62994;52.126;5.596;2023-01-16T14:17:15;6.80;99.90
17565;DHT22;62994;52.126;5.596;2023-01-16T14:19:51;6.80;99.90
17565;DHT22;62994;52.126;5.596;2023-01-16T14:22:20;6.80;99.90
17565;DHT22;62994;52.126;5.596;2023-01-16T14:25:17;6.80;99.90
17565;DHT22;62994;52.126;5.596;2023-01-16T14:27:49;6.80;99.90
17565;DHT22;62994;52.126;5.596;2023-01-16T14:30:19;6.80;99.90
17565;DHT22;62994;52.126;5.596;2023-01-16T14:32:48;6.80;99.90
17565;DHT22;62994;52.126;5.596;2023-01-16T14:35:20;6.80;99.90
17565;DHT22;62994;52.126;5.596;2023-01-16T14:37:58;6.80;99.90
17565;DHT22;62994;52.126;5.596;2023-01-16T14:40:28;6.80;99.90
17565;DHT22;62994;52.126;5.596;2023-01-16T14:43:15;6.80;99.90
17565;DHT22;62994;52.126;5.596;2023-01-16T14:46:29;6.70;99.90
17565;DHT22;62994;52.126;5.596;2023-01-16T14:49:39;6.70;99.90
17565;DHT22;62994;52.126;5.596;2023-01-16T14:52:48;6.70;99.90
17565;DHT22;62994;52.126;5.596;2023-01-16T14:55:56;6.70;99.90
17565;DHT22;62994;52.126;5.596;2023-01-16T14:58:30;6.70;99.90
17565;DHT22;62994;52.126;5.596;2023-01-16T15:00:59;6.70;99.90
17565;DHT22;62994;52.126;5.596;2023-01-16T15:03:41;6.70;99.90
17565;DHT22;62994;52.126;5.596;2023-01-16T15:06:09;6.70;99.90
17565;DHT22;62994;52.126;5.596;2023-01-16T15:08:39;6.60;99.90
17565;DHT22;62994;52.126;5.596;2023-01-16T15:11:12;6.70;99.90
17565;DHT22;62994;52.126;5.596;2023-01-16T15:14:04;6.70;99.90
17565;DHT22;62994;52.126;5.596;2023-01-16T15:16:49;6.70;99.90
17565;DHT22;62994;52.126;5.596;2023-01-16T15:19:33;6.70;99.90
17565;DHT22;62994;52.126;5.596;2023-01-16T15:22:19;6.70;99.90
17565;DHT22;62994;52.126;5.596;2023-01-16T15:24:50;6.70;99.90
17565;DHT22;62994;52.126;5.596;2023-01-16T15:27:22;6.70;99.90
17565;DHT22;62994;52.126;5.596;2023-01-16T15:29:56;6.60;99.90
17565;DHT22;62994;52.126;5.596;2023-01-16T15:32:26;6.70;99.90
17565;DHT22;62994;52.126;5.596;2023-01-16T15:35:04;6.70;99.90
17565;DHT22;62994;52.126;5.596;2023-01-16T15:37:33;6.70;99.90
17565;DHT22;62994;52.126;5.596;2023-01-16T15:40:00;6.70;99.90
17565;DHT22;62994;52.126;5.596;2023-01-16T15:42:29;6.70;99.90
17565;DHT22;62994;52.126;5.596;2023-01-16T15:45:20;6.80;99.90
17565;DHT22;62994;52.126;5.596;2023-01-16T15:48:30;6.80;99.90
17565;DHT22;62994;52.126;5.596;2023-01-16T15:54:03;6.80;99.90
17565;DHT22;62994;52.126;5.596;2023-01-16T15:56:38;6.80;99.90
17565;DHT22;62994;52.126;5.596;2023-01-16T15:59:30;6.90;99.90
17565;DHT22;62994;52.126;5.596;2023-01-16T16:02:22;6.90;99.90
17565;DHT22;62994;52.126;5.596;2023-01-16T16:05:13;6.90;99.90
17565;DHT22;62994;52.126;5.596;2023-01-16T16:08:24;7.00;99.90
17565;DHT22;62994;52.126;5.596;2023-01-16T16:10:56;7.00;99.90
17565;DHT22;62994;52.126;5.596;2023-01-16T16:13:41;7.00;99.90
17565;DHT22;62994;52.126;5.596;2023-01-16T16:16:23;7.00;99.90
17565;DHT22;62994;52.126;5.596;2023-01-16T16:19:29;6.90;99.90
17565;DHT22;62994;52.126;5.596;2023-01-16T16:22:13;7.00;99.90
17565;DHT22;62994;52.126;5.596;2023-01-16T16:25:16;7.00;99.90
17565;DHT22;62994;52.126;5.596;2023-01-16T16:27:51;7.00;99.90
17565;DHT22;62994;52.126;5.596;2023-01-16T16:30:28;7.00;99.90
17565;DHT22;62994;52.126;5.596;2023-01-16T16:33:05;7.10;99.90
17565;DHT22;62994;52.126;5.596;2023-01-16T16:35:53;7.00;99.90
17565;DHT22;62994;52.126;5.596;2023-01-16T16:38:49;7.00;99.90